createdAt,value
2023-06-17T00:01:54.697Z,84.78
2023-06-17T00:04:22.602Z,84.84
2023-06-17T00:06:50.992Z,84.85
2023-06-17T00:09:19.051Z,84.94
2023-06-17T00:11:48.821Z,85.07
2023-06-17T00:14:17.701Z,85.19
2023-06-17T00:16:45.568Z,85.31
2023-06-17T00:19:17.738Z,85.43
2023-06-17T00:21:50.700Z,85.53
2023-06-17T00:24:19.299Z,85.10
2023-06-17T00:26:47.973Z,85.54
2023-06-17T00:29:16.838Z,85.62
2023-06-17T00:31:44.868Z,85.70
2023-06-17T00:34:12.923Z,85.72
2023-06-17T00:36:40.829Z,85.78
2023-06-17T00:39:08.893Z,85.97
2023-06-17T00:41:36.856Z,85.98
2023-06-17T00:44:04.940Z,85.97
2023-06-17T00:46:42.351Z,86.08
2023-06-17T00:49:10.886Z,86.31
2023-06-17T00:51:40.738Z,86.45
2023-06-17T00:54:10.415Z,86.71
2023-06-17T00:56:39.191Z,86.92
2023-06-17T00:59:08.011Z,87.16
2023-06-17T01:01:38.712Z,87.24
2023-06-17T01:04:08.004Z,87.22
2023-06-17T01:06:51.746Z,87.17
2023-06-17T01:09:24.232Z,87.15
2023-06-17T01:11:57.106Z,87.29
2023-06-17T01:14:27.407Z,86.79
2023-06-17T01:16:55.849Z,86.66
2023-06-17T01:19:26.171Z,86.69
2023-06-17T01:21:58.143Z,86.62
2023-06-17T01:24:31.331Z,86.82
2023-06-17T01:27:01.144Z,87.15
2023-06-17T01:29:33.947Z,87.41
2023-06-17T01:32:02.934Z,87.53
2023-06-17T01:34:35.484Z,87.67
2023-06-17T01:37:08.919Z,87.52
2023-06-17T01:39:39.636Z,87.29
2023-06-17T01:42:16.601Z,87.24
2023-06-17T01:44:44.890Z,87.02
2023-06-17T01:47:15.035Z,87.07
2023-06-17T01:49:44.060Z,87.30
2023-06-17T01:52:12.894Z,87.59
2023-06-17T01:54:40.983Z,87.84
2023-06-17T01:57:09.408Z,87.90
2023-06-17T01:59:37.329Z,88.08
2023-06-17T02:02:05.457Z,88.13
2023-06-17T02:04:33.359Z,88.27
2023-06-17T02:07:01.538Z,88.43
2023-06-17T02:09:29.804Z,88.51
2023-06-17T02:11:57.880Z,88.65
2023-06-17T02:14:26.167Z,88.79
2023-06-17T02:16:54.388Z,88.85
2023-06-17T02:19:23.624Z,88.93
2023-06-17T02:21:52.172Z,88.95
2023-06-17T02:24:22.425Z,88.95
2023-06-17T02:26:51.444Z,88.86
2023-06-17T02:29:19.493Z,88.79
2023-06-17T02:31:47.704Z,88.77
2023-06-17T02:34:16.161Z,88.73
2023-06-17T02:36:45.942Z,88.63
2023-06-17T02:39:13.894Z,88.57
2023-06-17T02:41:43.564Z,88.57
2023-06-17T02:44:11.630Z,88.69
2023-06-17T02:46:39.593Z,88.75
2023-06-17T02:49:07.542Z,88.83
2023-06-17T02:51:35.529Z,88.94
2023-06-17T02:54:03.993Z,89.01
2023-06-17T02:56:32.046Z,89.03
2023-06-17T02:59:00.667Z,89.02
2023-06-17T03:01:30.050Z,89.03
2023-06-17T03:04:02.753Z,88.92
2023-06-17T03:06:35.255Z,88.83
2023-06-17T03:09:07.091Z,88.81
2023-06-17T03:11:36.561Z,88.82
2023-06-17T03:14:04.966Z,88.90
2023-06-17T03:16:35.037Z,88.96
2023-06-17T03:19:06.747Z,89.07
2023-06-17T03:21:42.097Z,89.16
2023-06-17T03:24:10.955Z,89.22
2023-06-17T03:26:39.897Z,89.24
2023-06-17T03:29:08.005Z,89.26
2023-06-17T03:31:36.483Z,89.25
2023-06-17T03:34:04.574Z,89.20
2023-06-17T03:36:32.672Z,89.18
2023-06-17T03:39:00.703Z,89.17
2023-06-17T03:41:33.420Z,89.14
2023-06-17T03:44:01.935Z,89.21
2023-06-17T03:46:30.140Z,89.27
2023-06-17T03:48:58.680Z,89.32
2023-06-17T03:51:26.792Z,89.38
2023-06-17T03:53:55.972Z,89.44
2023-06-17T03:56:24.893Z,89.50
2023-06-17T03:58:55.302Z,89.53
2023-06-17T05:04:16.358Z,86.63
2023-06-17T09:14:02.154Z,51.63
2023-06-17T10:29:42.900Z,48.69
2023-06-17T13:43:00.485Z,47.62
2023-06-17T13:45:29.157Z,45.51
2023-06-17T13:52:55.013Z,48.14
2023-06-17T14:14:27.484Z,48.62
2023-06-17T14:50:41.692Z,48.00
2023-06-17T15:22:01.592Z,50.17
2023-06-17T15:24:29.849Z,51.10
2023-06-17T16:09:00.861Z,52.41
2023-06-17T16:26:08.950Z,47.33
2023-06-17T16:57:23.320Z,55.66
2023-06-17T17:39:13.380Z,65.00
2023-06-17T17:41:41.446Z,64.68
2023-06-17T17:44:09.892Z,63.99
2023-06-17T18:30:26.235Z,69.14
2023-06-17T18:42:24.499Z,72.56
2023-06-17T18:49:50.737Z,73.33
2023-06-17T19:04:37.811Z,73.76
2023-06-17T19:12:00.724Z,73.14
2023-06-17T19:14:28.900Z,73.67
2023-06-17T19:16:57.103Z,73.85
2023-06-17T19:19:25.443Z,73.84
2023-06-17T19:34:58.934Z,74.86
2023-06-17T19:37:29.080Z,75.80
2023-06-17T19:39:57.463Z,75.99
2023-06-17T19:47:21.450Z,75.74
2023-06-17T19:49:49.804Z,76.66
2023-06-17T19:57:02.066Z,76.27
2023-06-17T19:59:30.464Z,77.13
2023-06-17T20:01:58.770Z,77.29
2023-06-17T20:13:54.396Z,76.70
2023-06-17T20:26:03.056Z,77.53
2023-06-17T20:40:16.910Z,78.52
2023-06-17T20:43:55.049Z,78.66
2023-06-17T20:46:23.348Z,78.67
2023-06-17T20:48:51.529Z,78.38
2023-06-17T20:56:02.800Z,78.97
2023-06-17T20:58:30.935Z,79.66
2023-06-17T21:00:59.096Z,79.97
2023-06-17T21:13:09.600Z,80.37
2023-06-17T21:15:39.100Z,80.96
2023-06-17T21:18:07.344Z,80.69
2023-06-17T21:39:43.047Z,80.94
2023-06-17T21:42:11.775Z,82.20
2023-06-17T21:44:40.477Z,82.39
2023-06-17T21:56:44.037Z,81.98
2023-06-17T21:59:13.269Z,82.21
2023-06-17T22:11:21.827Z,82.12
2023-06-17T22:23:19.011Z,82.74
2023-06-17T22:25:47.559Z,83.23
2023-06-17T22:42:39.902Z,84.25
2023-06-17T22:59:30.928Z,84.31
2023-06-17T23:06:49.933Z,84.73
2023-06-17T23:14:02.923Z,84.55
2023-06-17T23:21:14.904Z,85.76
2023-06-17T23:23:43.557Z,86.21
2023-06-17T23:35:47.221Z,86.35
